Stations météo

réclame
Mon MeteoGroup
Formigueres, France (7737): Température de l'air & dewpoint: 12.01.2019 13:00:00 - 18.01.2019 13:00:00 (CET)Formigueres, France (7737): Vitesse du vent & gusts: 12.01.2019 13:00:00 - 18.01.2019 13:00:00 (CET)Formigueres, France (7737): Direction du vent: 12.01.2019 13:00:00 - 18.01.2019 13:00:00 (CET)Formigueres, France (7737): Quantités de précipitations: 12.01.2019 13:00:00 - 18.01.2019 13:00:00 (CET)
Date & Time tt [°C] td [°C] ff [km/h] ff [knt] fx [km/h] fx [knt] dd rr [mm]
18.01.2019 13:00:00 - - - - - - - -
18.01.2019 12:00:00 -0,9 -8,1 8 4 16 9 NNE 0,0
18.01.2019 11:00:00 -1,4 -5,8 2 1 8 4 SSE 0,0
18.01.2019 10:00:00 -4,5 -8,4 2 1 15 8 NNE 0,0
18.01.2019 09:00:00 -8,0 -10,8 5 3 24 13 W 0,0
18.01.2019 08:00:00 -8,2 -11,4 9 5 21 11 SW 0,0
18.01.2019 07:00:00 -7,3 -9,1 8 4 16 9 S -
18.01.2019 06:00:00 -6,7 -9,0 2 1 18 10 W 0,0
18.01.2019 05:00:00 -6,3 -9,0 11 6 18 10 WSW 0,0
18.01.2019 04:00:00 -4,5 -7,6 11 6 24 13 N 0,0
18.01.2019 03:00:00 -3,6 -5,8 15 8 26 14 N 0,0
18.01.2019 02:00:00 -3,8 -5,6 4 2 22 12 NW 0,0
18.01.2019 01:00:00 -3,1 -4,7 13 7 29 16 N -
18.01.2019 00:00:00 -2,6 -4,6 9 5 31 17 NNE 0,0
17.01.2019 23:00:00 -1,8 -5,6 22 12 35 19 N 0,0
17.01.2019 22:00:00 -2,0 -7,1 16 9 31 17 NNE 0,0
17.01.2019 21:00:00 -2,1 -6,7 16 9 34 18 NNE 0,0
17.01.2019 20:00:00 -1,4 -7,5 13 7 26 14 NNW 0,0
17.01.2019 19:00:00 -0,8 -7,8 11 6 29 16 NNW -
17.01.2019 18:00:00 -0,4 -7,4 9 5 35 19 NNW 0,0
17.01.2019 17:00:00 -0,5 -4,2 9 5 29 16 NNW 0,0
17.01.2019 16:00:00 -0,3 -3,5 18 10 35 19 NNE 0,0
17.01.2019 15:00:00 -0,7 -1,8 16 9 41 22 NNE 0,0
17.01.2019 14:00:00 1,9 -1,5 22 12 39 21 NNE 0,0
17.01.2019 13:00:00 0,8 -1,9 21 11 35 19 N -
17.01.2019 12:00:00 0,6 -1,2 16 9 37 20 N 0,0
17.01.2019 11:00:00 1,2 -1,4 13 7 24 13 N 0,0
17.01.2019 10:00:00 -0,4 -4,5 2 1 11 6 NE 0,0
17.01.2019 09:00:00 -4,8 -6,6 5 3 18 10 S 0,0
17.01.2019 08:00:00 -4,8 -7,2 11 6 16 9 WSW 0,0
17.01.2019 07:00:00 -5,3 -7,7 4 2 16 9 W -
17.01.2019 06:00:00 -6,4 -8,4 4 2 13 7 S 0,0
17.01.2019 05:00:00 -4,8 -7,7 4 2 18 10 SW 0,0
17.01.2019 04:00:00 -6,1 -7,9 4 2 16 9 WSW 0,0
17.01.2019 03:00:00 -4,8 -7,7 8 4 21 11 W 0,0
17.01.2019 02:00:00 -4,8 -7,4 9 5 16 9 WSW 0,0
17.01.2019 01:00:00 -4,5 -7,3 8 4 16 9 WSW -
17.01.2019 00:00:00 -4,1 -7,7 5 3 11 6 W 0,0
16.01.2019 23:00:00 -3,4 -7,5 8 4 15 8 WSW 0,0
16.01.2019 22:00:00 -2,7 -7,4 9 5 16 9 W 0,0
16.01.2019 21:00:00 -2,4 -7,5 11 6 16 9 WSW 0,0
16.01.2019 20:00:00 -2,0 -7,9 11 6 21 11 W 0,0
16.01.2019 19:00:00 -1,1 -8,1 13 7 21 11 W -
16.01.2019 18:00:00 1,1 -8,2 9 5 16 9 W 0,0
16.01.2019 17:00:00 5,7 -6,9 8 4 29 16 N 0,0
16.01.2019 16:00:00 8,3 -8,7 13 7 44 24 NNE 0,0
16.01.2019 15:00:00 11,1 -8,7 18 10 42 23 S 0,0
16.01.2019 14:00:00 10,6 -9,2 28 15 48 26 S 0,0
16.01.2019 13:00:00 11,1 -11,1 22 12 39 21 S -
16.01.2019 12:00:00 10,7 -13,4 21 11 37 20 S 0,0
16.01.2019 11:00:00 8,3 -10,1 2 1 8 4 NE 0,0
16.01.2019 10:00:00 3,4 -14,3 4 2 21 11 WSW 0,0
16.01.2019 09:00:00 -1,4 -14,9 15 8 26 14 WSW 0,0
16.01.2019 08:00:00 -1,6 -15,4 16 9 26 14 WSW 0,0
16.01.2019 07:00:00 -1,9 -15,0 18 10 26 14 WSW -
16.01.2019 06:00:00 -2,3 -14,7 18 10 28 15 WSW 0,0
16.01.2019 05:00:00 -1,8 -14,9 21 11 28 15 WSW 0,0
16.01.2019 04:00:00 -1,2 -14,7 16 9 28 15 WSW 0,0
16.01.2019 03:00:00 -1,3 -14,5 16 9 26 14 WSW 0,0
16.01.2019 02:00:00 -1,2 -14,4 18 10 26 14 WSW 0,0
16.01.2019 01:00:00 -0,7 -13,9 16 9 29 16 WSW -
16.01.2019 00:00:00 -0,7 -13,3 18 10 26 14 WSW 0,0
15.01.2019 23:00:00 -0,9 -12,5 16 9 24 13 WSW 0,0
15.01.2019 22:00:00 -0,4 -12,1 18 10 26 14 WSW 0,0
15.01.2019 21:00:00 -0,2 -11,6 15 8 24 13 WSW 0,0
15.01.2019 20:00:00 -0,1 -11,2 16 9 24 13 WSW 0,0
15.01.2019 19:00:00 -0,2 -11,0 15 8 26 14 WSW -
15.01.2019 18:00:00 1,8 -11,0 18 10 24 13 WSW 0,0
15.01.2019 17:00:00 6,0 -12,1 13 7 22 12 W 0,0
15.01.2019 16:00:00 10,0 -16,3 15 8 24 13 N 0,0
15.01.2019 15:00:00 11,2 -15,4 13 7 26 14 NNE 0,0
15.01.2019 14:00:00 10,8 -17,5 13 7 28 15 NNE 0,0
15.01.2019 13:00:00 9,3 -18,7 21 11 29 16 N -
15.01.2019 12:00:00 9,1 -7,2 0 0 5 3 N 0,0
15.01.2019 11:00:00 3,9 -5,1 2 1 5 3 NNE 0,0
15.01.2019 10:00:00 2,5 -9,1 0 0 8 4 N 0,0
15.01.2019 09:00:00 -3,7 -13,4 9 5 18 10 WSW 0,0
15.01.2019 08:00:00 -5,0 -13,6 8 4 18 10 WSW 0,0
15.01.2019 07:00:00 -4,7 -12,6 11 6 18 10 WSW -
15.01.2019 06:00:00 -5,3 -12,5 8 4 16 9 WSW 0,0
15.01.2019 05:00:00 -6,5 -10,4 2 1 11 6 NW 0,0
15.01.2019 04:00:00 -5,3 -11,4 9 5 16 9 WSW 0,0
15.01.2019 03:00:00 -5,0 -10,4 4 2 13 7 W 0,0
15.01.2019 02:00:00 -4,4 -8,9 8 4 15 8 W 0,0
15.01.2019 01:00:00 -4,3 -6,9 4 2 13 7 NE -
15.01.2019 00:00:00 -2,8 -6,1 8 4 18 10 W 0,0
14.01.2019 23:00:00 -1,8 -5,3 9 5 16 9 WSW 0,0
14.01.2019 22:00:00 0,3 -4,0 9 5 28 15 NNW 0,0
14.01.2019 21:00:00 0,7 -4,0 8 4 31 17 NW 0,0
14.01.2019 20:00:00 1,6 -3,5 11 6 42 23 N 0,0
14.01.2019 19:00:00 1,6 -3,5 16 9 41 22 N -
14.01.2019 18:00:00 2,1 -4,0 8 4 29 16 NNW 0,0
14.01.2019 17:00:00 4,4 -6,5 16 9 41 22 N 0,0
14.01.2019 16:00:00 5,6 -4,3 24 13 67 36 NNE 0,0
14.01.2019 15:00:00 5,3 -3,5 15 8 68 37 NE 0,0
14.01.2019 14:00:00 6,8 -3,2 18 10 59 32 N 0,0
14.01.2019 13:00:00 6,1 -2,8 22 12 55 30 NNE -
14.01.2019 12:00:00 5,5 -1,7 13 7 55 30 NNE 0,0
14.01.2019 11:00:00 3,0 -1,9 21 11 63 34 W 0,0
14.01.2019 10:00:00 3,4 -2,8 21 11 54 29 NNE 0,0
14.01.2019 09:00:00 4,1 -3,7 15 8 54 29 NNE 0,0
14.01.2019 08:00:00 2,9 -5,5 15 8 59 32 N 0,0
14.01.2019 07:00:00 4,4 -6,8 16 9 59 32 NNW -
14.01.2019 06:00:00 4,4 -4,6 18 10 65 35 N 0,0
14.01.2019 05:00:00 5,0 -2,6 24 13 76 41 N 0,0
14.01.2019 04:00:00 4,8 -0,4 26 14 61 33 NNE 0,0
14.01.2019 03:00:00 4,8 0,2 28 15 67 36 N 0,0
14.01.2019 02:00:00 4,9 -0,3 22 12 63 34 N 0,0
14.01.2019 01:00:00 4,6 -0,8 15 8 46 25 N -
14.01.2019 00:00:00 4,2 -0,8 15 8 46 25 N 0,0
13.01.2019 23:00:00 4,1 -0,9 18 10 44 24 N 0,0
13.01.2019 22:00:00 4,1 -1,3 13 7 37 20 NNE 0,0
13.01.2019 21:00:00 3,7 -1,5 16 9 35 19 N 0,0
13.01.2019 20:00:00 3,3 -1,7 16 9 31 17 N 0,0
13.01.2019 19:00:00 4,2 -1,4 18 10 44 24 WNW -
13.01.2019 18:00:00 4,5 -1,7 21 11 52 28 NW 0,0
13.01.2019 17:00:00 4,2 -1,4 13 7 48 26 W 0,0
13.01.2019 16:00:00 5,5 -1,0 15 8 54 29 N 0,0
13.01.2019 15:00:00 5,1 -1,2 9 5 48 26 NW 0,0
13.01.2019 14:00:00 6,9 -0,1 11 6 63 34 NNW 0,0
13.01.2019 13:00:00 4,3 -1,7 22 12 65 35 WNW -
13.01.2019 12:00:00 3,3 -2,5 13 7 50 27 NW 0,0
13.01.2019 11:00:00 2,9 -2,8 22 12 44 24 N 0,0
13.01.2019 10:00:00 2,3 -3,2 16 9 42 23 W 0,0
13.01.2019 09:00:00 1,5 -3,8 13 7 46 25 WNW 0,0
13.01.2019 08:00:00 0,6 -4,2 16 9 46 25 NNW 0,0
13.01.2019 07:00:00 0,5 -4,0 22 12 42 23 NNW -
13.01.2019 06:00:00 0,2 -4,3 11 6 44 24 NNW 0,0
13.01.2019 05:00:00 -0,1 -4,2 15 8 34 18 NNW 0,0
13.01.2019 04:00:00 -1,4 -5,3 16 9 34 18 NNW 0,0
13.01.2019 03:00:00 -1,5 -7,0 18 10 37 20 N 0,0
13.01.2019 02:00:00 -3,4 -6,7 8 4 31 17 NNE 0,0
13.01.2019 01:00:00 -5,1 -6,3 8 4 21 11 WSW -
13.01.2019 00:00:00 -3,7 -6,0 8 4 50 27 S 0,0
12.01.2019 23:00:00 -3,3 -4,1 28 15 48 26 N 0,0
12.01.2019 22:00:00 -2,1 -6,5 13 7 34 18 N 0,0
12.01.2019 21:00:00 -4,1 -5,8 8 4 34 18 E 0,0
12.01.2019 20:00:00 -2,9 -3,7 24 13 46 25 N 0,0
12.01.2019 19:00:00 -2,6 -4,8 15 8 35 19 N -
12.01.2019 18:00:00 -2,3 -4,2 21 11 46 25 N 0,0
12.01.2019 17:00:00 -1,7 -4,2 26 14 48 26 N 0,0
12.01.2019 16:00:00 0,3 -4,0 26 14 48 26 N 0,0
12.01.2019 15:00:00 1,4 -4,1 29 16 52 28 N 0,0
12.01.2019 14:00:00 1,3 -4,4 31 17 52 28 NNE 0,0
12.01.2019 13:00:00 1,0 -4,4 34 18 50 27 NNE -

tt = Température de l'air
td = dewpoint
ff = Vitesse du vent
fx = gusts
dd = Direction du vent
rr = Quantités de précipitations

stations d'obs. à proximité